Time;durP1;ratioP1;P1;durP2;ratioP2;P2;SDS_P1;SDS_P2;PMS_P1;PMS_P2;Temp;Humidity;BMP_temperature;BMP_pressure;BME280_temperature;BME280_humidity;BME280_pressure;Samples;Min_cycle;Max_cycle;Signal;HPM_P1;HPM_P2
2021/12/14 00:01:46;;;;;;;15.93;3.20;;;;;;;18.83;57.34;102604.97;5033058;28;20037;-67
2021/12/14 00:04:28;;;;;;;11.07;3.22;;;;;;;18.80;57.21;102598.09;5033095;28;20022;-67
2021/12/14 00:07:09;;;;;;;12.02;2.95;;;;;;;18.78;57.20;102602.59;5031876;28;20029;-67
2021/12/14 00:09:39;;;;;;;16.25;3.38;;;;;;;18.77;57.12;102600.03;5033027;28;20038;-67
2021/12/14 00:15:03;;;;;;;9.25;2.42;;;;;;;18.73;57.23;102596.72;5030448;28;20045;-67
2021/12/14 00:17:36;;;;;;;11.40;2.80;;;;;;;18.70;57.40;102601.34;5032939;28;20053;-67
2021/12/14 00:20:17;;;;;;;9.03;2.57;;;;;;;18.68;57.28;102583.78;5031921;28;20022;-67
2021/12/14 00:25:29;;;;;;;8.80;2.80;;;;;;;18.64;57.42;102598.09;5032787;28;20025;-67
2021/12/14 00:27:58;;;;;;;11.35;2.70;;;;;;;18.63;57.44;102592.91;5031767;28;20030;-67
2021/12/14 00:30:23;;;;;;;12.05;2.83;;;;;;;18.62;57.38;102596.47;5032716;28;20021;-67
2021/12/14 00:32:48;;;;;;;14.73;3.10;;;;;;;18.59;57.42;102594.84;5032557;28;20095;-67
2021/12/14 00:35:15;;;;;;;11.02;3.17;;;;;;;18.57;57.22;102601.16;5031978;28;20038;-68
2021/12/14 00:37:45;;;;;;;12.27;2.83;;;;;;;18.57;57.03;102609.94;5032239;28;20388;-67
2021/12/14 00:40:31;;;;;;;10.25;2.75;;;;;;;18.54;57.51;102604.81;5032389;28;20095;-67
2021/12/14 00:42:58;;;;;;;11.15;2.65;;;;;;;18.54;57.57;102614.53;5031539;28;20048;-67
2021/12/14 00:45:25;;;;;;;13.63;2.83;;;;;;;18.52;57.17;102619.91;5032633;28;20061;-67
2021/12/14 00:47:51;;;;;;;12.23;2.95;;;;;;;18.51;57.25;102625.28;5032555;28;20018;-67
2021/12/14 00:50:19;;;;;;;12.73;3.22;;;;;;;18.48;57.37;102621.88;5032648;28;20026;-67
2021/12/14 00:52:46;;;;;;;11.80;2.90;;;;;;;18.47;57.20;102624.59;5035197;28;20040;-68
2021/12/14 00:55:15;;;;;;;16.05;3.38;;;;;;;18.46;57.49;102633.44;5036349;28;20017;-66
2021/12/14 00:57:40;;;;;;;11.82;2.85;;;;;;;18.44;57.47;102641.44;5036560;28;20040;-67
2021/12/14 01:00:10;;;;;;;11.23;2.65;;;;;;;18.44;57.23;102641.44;5036719;28;20360;-67
2021/12/14 01:02:37;;;;;;;11.63;2.92;;;;;;;18.44;57.48;102645.88;5035664;28;20029;-67
2021/12/14 01:05:10;;;;;;;8.10;2.30;;;;;;;18.42;57.21;102645.97;5036090;28;20033;-68
2021/12/14 01:07:36;;;;;;;10.50;2.85;;;;;;;18.41;57.14;102640.75;5036578;28;20034;-67
2021/12/14 01:10:13;;;;;;;14.93;2.88;;;;;;;18.40;57.08;102631.13;5035513;28;20026;-67
2021/12/14 01:12:46;;;;;;;11.90;3.60;;;;;;;18.38;57.41;102631.22;5036648;28;20037;-67
2021/12/14 01:15:29;;;;;;;13.40;2.88;;;;;;;18.36;57.49;102625.16;5036475;28;20041;-67
2021/12/14 01:18:13;;;;;;;11.93;2.85;;;;;;;18.35;57.22;102612.06;5035288;28;20045;-67
2021/12/14 01:20:43;;;;;;;14.13;3.53;;;;;;;18.33;57.17;102620.06;5036942;28;20114;-67
2021/12/14 01:23:17;;;;;;;13.02;2.90;;;;;;;18.32;57.61;102626.25;5047393;28;20037;-67
2021/12/14 01:25:48;;;;;;;10.30;2.67;;;;;;;18.30;57.22;102633.41;5049094;28;20080;-67
2021/12/14 01:28:22;;;;;;;12.60;2.70;;;;;;;18.30;57.24;102617.56;5050928;28;20216;-67
2021/12/14 01:31:16;;;;;;;10.07;2.83;;;;;;;18.28;57.50;102600.97;5049519;28;20032;-66
2021/12/14 01:33:46;;;;;;;12.20;2.85;;;;;;;18.27;57.39;102605.38;5040193;28;20113;-66
2021/12/14 01:36:30;;;;;;;13.93;2.83;;;;;;;18.26;57.25;102608.09;5036160;28;20021;-66
2021/12/14 01:39:23;;;;;;;9.65;2.78;;;;;;;18.24;57.23;102607.34;5035123;28;20057;-66
2021/12/14 01:41:55;;;;;;;14.35;3.10;;;;;;;18.23;57.57;102598.59;5035647;28;20033;-66
2021/12/14 01:44:22;;;;;;;12.32;2.65;;;;;;;18.23;57.34;102595.94;5035714;28;20037;-66
2021/12/14 01:46:55;;;;;;;11.23;2.72;;;;;;;18.22;57.16;102606.59;5035127;28;20546;-67
2021/12/14 01:49:22;;;;;;;12.98;2.72;;;;;;;18.20;57.38;102601.41;5035842;28;20021;-66
2021/12/14 01:51:51;;;;;;;13.68;3.28;;;;;;;18.20;57.44;102606.69;5034680;28;20477;-66
2021/12/14 01:54:25;;;;;;;10.98;3.03;;;;;;;18.19;57.47;102604.13;5035724;28;20018;-66
2021/12/14 01:56:51;;;;;;;14.13;2.75;;;;;;;18.17;57.39;102601.56;5035219;28;20036;-66
2021/12/14 01:59:23;;;;;;;10.85;2.47;;;;;;;18.17;57.46;102595.44;5034533;28;20120;-67
2021/12/14 02:02:08;;;;;;;11.75;2.30;;;;;;;18.17;57.29;102585.72;5034825;28;20370;-66
2021/12/14 02:04:39;;;;;;;14.27;2.65;;;;;;;18.15;57.14;102581.44;5034153;28;20049;-66
2021/12/14 02:07:06;;;;;;;15.27;3.35;;;;;;;18.13;57.28;102592.97;5034912;28;20040;-66
2021/12/14 02:09:34;;;;;;;12.00;3.00;;;;;;;18.13;57.33;102573.63;5035154;28;20385;-66
2021/12/14 02:12:08;;;;;;;10.70;2.35;;;;;;;18.10;57.51;102558.81;5034622;28;20039;-66
2021/12/14 02:14:33;;;;;;;9.25;2.20;;;;;;;18.09;57.47;102562.38;5034265;28;20049;-66
2021/12/14 02:17:03;;;;;;;13.63;3.53;;;;;;;18.10;57.28;102576.41;5034745;28;20192;-67
2021/12/14 02:19:30;;;;;;;14.50;2.60;;;;;;;18.09;57.11;102564.19;5035050;28;20396;-67
2021/12/14 02:21:56;;;;;;;12.70;3.00;;;;;;;18.08;57.12;102571.22;5033906;28;20056;-65
2021/12/14 02:24:24;;;;;;;12.65;2.90;;;;;;;18.07;57.40;102572.19;5034841;28;20029;-66
2021/12/14 02:26:53;;;;;;;12.80;2.90;;;;;;;18.06;56.92;102575.75;5033893;28;20065;-67
2021/12/14 02:29:35;;;;;;;10.32;2.92;;;;;;;18.04;57.32;102569.72;5034881;28;20017;-66
2021/12/14 02:32:05;;;;;;;10.38;2.35;;;;;;;18.05;57.24;102574.03;5034484;28;20076;-66
2021/12/14 02:34:41;;;;;;;10.60;2.30;;;;;;;18.03;57.13;102578.53;5033929;28;20104;-67
2021/12/14 02:37:10;;;;;;;9.45;2.70;;;;;;;18.03;57.20;102564.50;5034705;28;20187;-67
2021/12/14 02:42:10;;;;;;;8.20;2.20;;;;;;;18.01;57.00;102583.06;5033930;28;20447;-66
2021/12/14 02:44:37;;;;;;;6.30;2.13;;;;;;;17.99;57.08;102589.34;5034681;28;20401;-67
2021/12/14 02:47:08;;;;;;;10.50;2.55;;;;;;;17.99;57.11;102589.34;5034197;28;20104;-66
2021/12/14 02:49:35;;;;;;;12.75;2.92;;;;;;;17.97;57.30;102578.88;5033755;28;20549;-67
2021/12/14 02:52:09;;;;;;;14.38;2.80;;;;;;;17.97;57.20;102597.34;5034071;28;20493;-67
2021/12/14 02:54:41;;;;;;;12.47;2.90;;;;;;;17.94;56.83;102590.44;5034375;28;20033;-67
2021/12/14 02:57:13;;;;;;;13.25;3.17;;;;;;;17.94;57.13;102582.53;5033958;28;20492;-67
2021/12/14 02:59:43;;;;;;;13.57;3.40;;;;;;;17.92;57.13;102565.91;5034189;28;20034;-66
2021/12/14 03:02:15;;;;;;;9.25;2.75;;;;;;;17.92;57.18;102560.66;5033718;28;20025;-67
2021/12/14 03:04:44;;;;;;;14.05;2.75;;;;;;;17.90;56.96;102554.59;5034057;28;20104;-67
2021/12/14 03:07:12;;;;;;;10.25;2.63;;;;;;;17.90;57.11;102554.59;5034222;28;20022;-66
2021/12/14 03:10:18;;;;;;;10.88;2.97;;;;;;;17.91;57.02;102558.97;5033385;28;20156;-67
2021/12/14 03:12:50;;;;;;;9.30;2.22;;;;;;;17.88;56.95;102556.47;5034028;28;20124;-67
2021/12/14 03:15:26;;;;;;;14.18;3.00;;;;;;;17.88;56.71;102548.56;5033328;28;20041;-67
2021/12/14 03:17:58;;;;;;;10.38;2.38;;;;;;;17.87;57.05;102538.91;5032947;28;20048;-67
2021/12/14 03:20:30;;;;;;;13.23;2.53;;;;;;;17.86;57.06;102536.34;5033675;28;20159;-67
2021/12/14 03:23:05;;;;;;;10.02;2.70;;;;;;;17.86;56.87;102531.06;5032564;28;20033;-67
2021/12/14 03:25:32;;;;;;;9.55;2.20;;;;;;;17.85;57.12;102527.59;5033721;28;20037;-67
2021/12/14 03:27:58;;;;;;;10.48;2.90;;;;;;;17.84;56.98;102525.03;5033340;28;20037;-66
2021/12/14 03:30:26;;;;;;;11.27;2.70;;;;;;;17.84;56.86;102532.94;5033137;28;20025;-67
2021/12/14 03:32:57;;;;;;;10.38;2.58;;;;;;;17.83;57.09;102540.03;5033295;28;20041;-67
2021/12/14 03:35:36;;;;;;;11.38;2.75;;;;;;;17.82;56.95;102529.56;5033968;28;20025;-66
2021/12/14 03:38:07;;;;;;;13.25;2.97;;;;;;;17.82;56.68;102533.03;5032651;28;20022;-67
2021/12/14 03:40:32;;;;;;;8.57;2.53;;;;;;;17.80;56.94;102523.50;5033559;28;20033;-66
2021/12/14 03:42:58;;;;;;;12.98;3.00;;;;;;;17.81;57.24;102527.84;5033147;28;20031;-66
2021/12/14 03:45:23;;;;;;;9.65;2.78;;;;;;;17.80;56.74;102529.63;5032449;28;20053;-66
2021/12/14 03:47:53;;;;;;;11.20;2.30;;;;;;;17.78;56.83;102531.47;5033009;28;20057;-66
2021/12/14 03:50:28;;;;;;;11.18;2.70;;;;;;;17.77;56.72;102538.56;5033376;28;20028;-66
2021/12/14 03:52:54;;;;;;;9.60;2.60;;;;;;;17.77;56.72;102554.38;5032386;28;20017;-66
2021/12/14 03:55:19;;;;;;;11.88;2.70;;;;;;;17.76;56.66;102560.56;5033409;28;20022;-66
2021/12/14 03:57:44;;;;;;;10.63;2.40;;;;;;;17.76;56.95;102575.56;5032854;28;20129;-66
2021/12/14 04:00:17;;;;;;;12.80;2.63;;;;;;;17.75;56.70;102579.97;5032446;28;20285;-66
2021/12/14 04:02:42;;;;;;;14.10;2.50;;;;;;;17.74;57.20;102583.53;5032939;28;20035;-66
2021/12/14 04:05:11;;;;;;;12.60;2.58;;;;;;;17.75;57.65;102584.38;5032364;28;20101;-66
2021/12/14 04:07:41;;;;;;;12.93;2.92;;;;;;;17.77;58.00;102590.44;5033089;28;20025;-66
2021/12/14 04:10:23;;;;;;;13.43;2.67;;;;;;;17.80;58.28;102589.41;5032787;28;20029;-66
2021/12/14 04:12:49;;;;;;;14.30;2.78;;;;;;;17.82;58.18;102593.69;5031945;28;20033;-66
2021/12/14 04:15:14;;;;;;;10.75;2.58;;;;;;;17.84;57.79;102596.25;5032835;28;20029;-66
2021/12/14 04:17:40;;;;;;;10.43;2.38;;;;;;;17.86;57.82;102591.75;5032449;28;20048;-66
2021/12/14 04:20:20;;;;;;;12.02;2.40;;;;;;;17.90;57.73;102582.78;5032032;28;20080;-66
2021/12/14 04:22:48;;;;;;;10.65;2.40;;;;;;;17.90;57.91;102578.34;5032396;28;20125;-66
2021/12/14 04:25:20;;;;;;;12.30;2.90;;;;;;;17.92;57.50;102579.09;5032882;28;20025;-66
2021/12/14 04:27:50;;;;;;;12.48;3.17;;;;;;;17.93;57.77;102583.47;5031133;28;20025;-66
2021/12/14 04:30:19;;;;;;;8.82;3.05;;;;;;;17.93;57.73;102590.53;5032848;28;20049;-67
2021/12/14 04:32:50;;;;;;;9.15;2.58;;;;;;;17.95;57.40;102584.22;5032334;28;20041;-67
2021/12/14 04:35:16;;;;;;;11.70;3.00;;;;;;;17.97;57.53;102583.31;5031840;28;20529;-67
2021/12/14 04:37:43;;;;;;;10.65;2.45;;;;;;;17.97;57.34;102586.78;5032221;28;20025;-67
2021/12/14 04:40:24;;;;;;;10.07;3.20;;;;;;;17.96;57.13;102571.91;5032603;28;20041;-67
2021/12/14 04:51:57;;;;;;;11.18;2.55;;;;;;;17.97;57.07;102573.59;5032721;28;20036;-67
2021/12/14 04:54:01;;;;;;;12.60;2.83;;;;;;;17.97;56.69;102554.28;5032358;28;20527;-67
2021/12/14 04:56:32;;;;;;;10.50;2.72;;;;;;;17.95;56.80;102549.94;5031726;28;20509;-68
2021/12/14 04:59:02;;;;;;;11.20;3.35;;;;;;;17.95;57.12;102549.09;5032361;28;20079;-67
2021/12/14 05:01:31;;;;;;;9.32;2.83;;;;;;;17.95;57.61;102557.00;5031670;28;20128;-67
2021/12/14 05:04:02;;;;;;;9.77;2.40;;;;;;;17.98;57.64;102561.28;5031777;28;20048;-67
2021/12/14 05:06:44;;;;;;;11.48;3.03;;;;;;;17.98;57.41;102559.47;5032331;28;20105;-68
2021/12/14 05:11:56;;;;;;;9.38;3.20;;;;;;;18.02;57.49;102568.06;5032380;28;20160;-66
2021/12/14 05:14:23;;;;;;;12.40;2.80;;;;;;;18.02;57.39;102560.16;5032217;28;20052;-66
2021/12/14 05:16:53;;;;;;;11.02;3.22;;;;;;;18.03;57.52;102559.22;5030985;28;20034;-67
2021/12/14 05:19:26;;;;;;;10.02;2.63;;;;;;;18.04;57.44;102551.25;5032172;28;20024;-67
2021/12/14 05:21:53;;;;;;;12.05;2.67;;;;;;;18.04;57.50;102550.38;5031891;28;20030;-67
2021/12/14 05:24:24;;;;;;;13.68;2.63;;;;;;;18.04;57.34;102545.97;5031473;28;20109;-68
2021/12/14 05:26:59;;;;;;;9.75;2.80;;;;;;;18.04;56.93;102548.59;5031728;28;20120;-67
2021/12/14 05:29:27;;;;;;;14.95;3.15;;;;;;;18.04;57.10;102553.88;5032099;28;20113;-67
2021/12/14 05:31:55;;;;;;;12.13;3.17;;;;;;;18.04;57.09;102550.38;5031289;28;20385;-67
2021/12/14 05:34:25;;;;;;;13.38;3.20;;;;;;;18.03;56.96;102549.53;5032255;28;20468;-67
2021/12/14 05:36:51;;;;;;;9.18;2.80;;;;;;;18.02;56.86;102550.44;5031035;28;20033;-67
2021/12/14 05:44:39;;;;;;;10.88;3.47;;;;;;;18.01;56.75;102539.97;5034834;28;20045;-67
2021/12/14 05:47:10;;;;;;;10.45;3.17;;;;;;;18.02;56.89;102549.59;5035557;28;20030;-67
2021/12/14 05:49:37;;;;;;;11.88;2.95;;;;;;;18.00;56.94;102552.31;5035522;28;20024;-67
2021/12/14 05:52:09;;;;;;;8.82;3.03;;;;;;;18.00;56.86;102551.47;5034160;28;20473;-67
2021/12/14 05:54:35;;;;;;;15.13;3.10;;;;;;;18.00;57.31;102556.75;5035261;28;20060;-66
2021/12/14 05:57:12;;;;;;;14.07;3.05;;;;;;;18.01;57.21;102558.44;5034922;28;20037;-66
2021/12/14 05:59:38;;;;;;;10.75;3.20;;;;;;;18.00;57.53;102562.03;5034694;28;20037;-66
2021/12/14 06:02:07;;;;;;;13.48;3.50;;;;;;;18.02;57.52;102555.72;5034891;28;20049;-66
2021/12/14 06:04:36;;;;;;;12.05;3.63;;;;;;;18.03;57.70;102560.06;5035313;28;20025;-66
2021/12/14 06:07:06;;;;;;;14.50;3.20;;;;;;;18.05;57.84;102568.75;5034225;28;20105;-66
2021/12/14 06:09:35;;;;;;;13.40;2.90;;;;;;;18.07;57.61;102580.09;5035236;28;20027;-66
2021/12/14 06:12:06;;;;;;;8.80;2.38;;;;;;;18.10;57.86;102574.66;5034176;28;20107;-67
2021/12/14 06:14:31;;;;;;;9.75;2.78;;;;;;;18.11;57.60;102581.63;5034829;28;20021;-66
2021/12/14 06:17:04;;;;;;;11.38;2.75;;;;;;;18.13;57.50;102585.03;5034453;28;20042;-66
2021/12/14 06:19:38;;;;;;;8.15;2.72;;;;;;;18.16;57.33;102585.81;5034309;28;20108;-67
2021/12/14 06:22:08;;;;;;;9.07;2.50;;;;;;;18.18;57.29;102590.03;5034747;28;20033;-68
2021/12/14 06:24:37;;;;;;;8.00;2.70;;;;;;;18.19;56.80;102590.91;5035141;28;20025;-68
2021/12/14 06:27:05;;;;;;;9.90;2.53;;;;;;;18.21;56.95;102586.41;5033832;28;20037;-67
2021/12/14 06:29:44;;;;;;;10.40;2.38;;;;;;;18.22;56.79;102581.03;5034897;28;20022;-67
2021/12/14 06:32:32;;;;;;;14.45;3.05;;;;;;;18.20;56.70;102582.91;5034723;28;20426;-67
2021/12/14 06:35:05;;;;;;;10.50;2.83;;;;;;;18.26;56.45;102593.16;5033777;28;20029;-68
2021/12/14 06:40:26;;;;;;;;;;;;;;;18.27;56.33;102581.63;5034337;28;20033;-68
2021/12/14 06:42:58;;;;;;;7.57;2.08;;;;;;;18.30;56.39;102585.91;5033954;28;19923;-67
2021/12/14 06:45:31;;;;;;;9.93;2.70;;;;;;;18.33;56.33;102591.03;5034364;28;20433;-67
2021/12/14 06:48:04;;;;;;;7.88;2.35;;;;;;;18.35;56.06;102599.69;5033554;28;20022;-66
2021/12/14 06:50:36;;;;;;;9.98;2.58;;;;;;;18.37;56.05;102594.34;5033693;28;20029;-67
2021/12/14 06:53:08;;;;;;;8.50;2.33;;;;;;;18.38;56.01;102596.06;5033887;28;20034;-67
2021/12/14 06:55:35;;;;;;;9.05;2.40;;;;;;;18.39;55.71;102598.59;5033686;28;20033;-67
2021/12/14 06:58:17;;;;;;;8.82;2.70;;;;;;;18.41;56.20;102604.66;5034001;28;20033;-67
2021/12/14 07:00:53;;;;;;;6.97;3.10;;;;;;;18.43;55.86;102607.19;5034040;28;20079;-66
2021/12/14 07:03:18;;;;;;;11.15;2.25;;;;;;;18.44;56.06;102616.84;5033571;28;20038;-67
2021/12/14 07:05:48;;;;;;;9.93;2.13;;;;;;;18.45;55.62;102614.13;5033744;28;20500;-67
2021/12/14 07:08:26;;;;;;;8.20;2.28;;;;;;;18.47;55.65;102614.88;5033409;28;20381;-67
2021/12/14 07:10:52;;;;;;;9.90;2.65;;;;;;;18.48;55.61;102613.94;5034009;28;20104;-67
2021/12/14 07:13:34;;;;;;;9.73;2.72;;;;;;;18.49;55.63;102614.78;5034024;28;20033;-67
2021/12/14 07:16:00;;;;;;;6.07;2.20;;;;;;;18.51;55.92;102620.84;5032721;28;20437;-65
2021/12/14 07:18:29;;;;;;;10.43;2.88;;;;;;;18.51;55.84;102623.47;5033627;28;20188;-64
2021/12/14 07:20:58;;;;;;;9.02;3.15;;;;;;;18.51;54.44;102626.09;5048847;28;20037;-65
2021/12/14 07:23:28;;;;;;;10.35;3.85;;;;;;;18.52;54.16;102633.09;5033027;28;20116;-64
2021/12/14 07:26:17;;;;;;;11.23;2.97;;;;;;;18.54;54.62;102640.94;5033245;28;20502;-65
2021/12/14 07:28:45;;;;;;;9.98;2.60;;;;;;;18.57;54.98;102646.91;5033087;28;20033;-64
2021/12/14 07:31:23;;;;;;;9.32;2.47;;;;;;;18.59;55.28;102645.03;5032885;28;20033;-62
2021/12/14 07:33:55;;;;;;;11.35;2.75;;;;;;;18.62;55.00;102649.28;5034073;28;20492;-64
2021/12/14 07:36:29;;;;;;;6.63;2.30;;;;;;;18.63;55.31;102657.13;5032954;28;20235;-64
2021/12/14 07:39:01;;;;;;;7.22;2.53;;;;;;;18.65;55.03;102651.75;5033196;28;20036;-64
2021/12/14 07:41:32;;;;;;;9.77;2.92;;;;;;;18.64;54.94;102650.94;5033443;28;20103;-64
2021/12/14 07:44:04;;;;;;;10.30;2.67;;;;;;;18.65;55.02;102641.19;5032382;28;20032;-63
2021/12/14 07:46:43;;;;;;;7.60;2.15;;;;;;;18.68;55.34;102647.16;5033179;28;20118;-64
2021/12/14 07:49:19;;;;;;;9.90;2.17;;;;;;;18.70;55.14;102656.78;5033258;28;20236;-64
2021/12/14 07:51:47;;;;;;;8.32;2.75;;;;;;;18.71;55.30;102659.34;5032325;28;20155;-62
2021/12/14 07:54:20;;;;;;;11.25;2.70;;;;;;;18.71;54.92;102669.91;5033246;28;20025;-64
2021/12/14 07:56:49;;;;;;;8.68;2.30;;;;;;;18.72;54.99;102674.25;5032869;28;20021;-64
2021/12/14 07:59:19;;;;;;;7.82;2.47;;;;;;;18.73;55.10;102675.97;5032276;28;20030;-64
2021/12/14 08:01:49;;;;;;;9.73;2.60;;;;;;;18.74;55.34;102682.97;5032577;28;20035;-63
2021/12/14 08:04:14;;;;;;;9.88;2.97;;;;;;;18.72;55.47;102682.16;5032375;28;20069;-64
2021/12/14 08:06:55;;;;;;;10.05;2.78;;;;;;;18.73;55.12;102694.44;5033104;28;20103;-65
2021/12/14 08:09:51;;;;;;;8.95;2.55;;;;;;;18.75;55.16;102692.56;5032843;28;20478;-65
2021/12/14 08:12:44;;;;;;;10.75;2.78;;;;;;;18.75;55.31;102687.28;5031998;28;20052;-66
2021/12/14 08:15:16;;;;;;;7.70;2.80;;;;;;;18.77;55.50;102693.34;5032984;28;20048;-64
2021/12/14 08:17:43;;;;;;;11.63;2.75;;;;;;;18.77;55.57;102684.56;5032309;28;20048;-65
2021/12/14 08:20:12;;;;;;;7.57;2.67;;;;;;;18.78;55.87;102681.84;5031909;28;20026;-66
2021/12/14 08:22:42;;;;;;;10.57;3.13;;;;;;;18.75;56.16;102679.38;5033470;28;20021;-63
2021/12/14 08:25:11;;;;;;;13.13;3.15;;;;;;;18.83;56.09;102684.22;5033506;28;20183;-66
2021/12/14 08:27:37;;;;;;;12.05;3.08;;;;;;;18.83;55.80;102681.59;5032092;28;20079;-65
2021/12/14 08:30:09;;;;;;;14.55;3.88;;;;;;;18.81;55.83;102684.31;5032299;28;20034;-65
2021/12/14 08:32:37;;;;;;;13.65;3.60;;;;;;;18.79;55.76;102690.63;5031700;28;20119;-67
2021/12/14 08:35:07;;;;;;;12.65;3.80;;;;;;;18.76;56.06;102689.00;5032117;28;20038;-66
2021/12/14 08:37:36;;;;;;;12.38;3.65;;;;;;;18.75;56.11;102694.38;5032640;28;20021;-66
2021/12/14 08:40:16;;;;;;;12.85;3.55;;;;;;;18.74;55.93;102695.28;5031572;28;20024;-66
2021/12/14 08:43:02;;;;;;;12.25;3.30;;;;;;;18.71;56.12;102693.69;5032121;28;20033;-66
2021/12/14 08:45:36;;;;;;;10.30;2.92;;;;;;;18.73;56.17;102698.88;5024121;28;20037;-65
2021/12/14 08:48:13;;;;;;;10.75;2.95;;;;;;;18.71;56.37;102693.69;5009905;28;20018;-66
2021/12/14 08:50:59;;;;;;;12.60;3.05;;;;;;;18.70;56.21;102693.78;5010085;28;20044;-66
2021/12/14 08:53:31;;;;;;;14.18;3.55;;;;;;;18.72;56.31;102697.16;5010809;28;20565;-66
2021/12/14 08:55:59;;;;;;;13.02;4.03;;;;;;;18.71;56.17;102695.47;5011974;28;20037;-66
2021/12/14 08:58:27;;;;;;;10.88;3.22;;;;;;;18.70;56.24;102693.78;5013004;28;20053;-66
2021/12/14 09:00:59;;;;;;;12.70;4.15;;;;;;;18.69;56.02;102706.09;5011976;28;20026;-65
2021/12/14 09:03:34;;;;;;;10.38;3.25;;;;;;;18.68;56.33;102701.78;5012898;28;20033;-65
2021/12/14 09:06:09;;;;;;;14.57;3.40;;;;;;;18.70;56.20;102704.34;5012470;28;20125;-65
2021/12/14 09:08:37;;;;;;;12.48;3.70;;;;;;;18.68;56.29;102709.69;5011913;28;20025;-65
2021/12/14 09:11:11;;;;;;;13.15;3.33;;;;;;;18.66;55.99;102709.78;5012600;28;20048;-66
2021/12/14 09:13:37;;;;;;;;;;;;;;;18.64;56.43;102711.66;5015963;28;20069;-65
2021/12/14 09:16:13;;;;;;;11.38;3.30;;;;;;;18.66;56.31;102704.50;5015653;28;19964;-66
2021/12/14 09:18:53;;;;;;;11.20;3.40;;;;;;;18.68;56.31;102712.34;5016367;28;20046;-65
2021/12/14 09:21:44;;;;;;;11.63;3.42;;;;;;;18.65;56.41;102708.06;5016760;28;20112;-65
2021/12/14 09:24:16;;;;;;;12.40;4.22;;;;;;;18.68;56.35;102713.19;5016643;28;20022;-65
2021/12/14 09:26:50;;;;;;;11.95;3.63;;;;;;;18.62;56.35;102705.59;5016368;28;20036;-66
2021/12/14 09:29:20;;;;;;;;;;;;;;;18.65;56.60;102718.63;5016314;28;20038;-65
2021/12/14 09:31:48;;;;;;;13.38;3.40;;;;;;;18.66;56.41;102714.22;5015942;28;19924;-65
2021/12/14 09:34:24;;;;;;;15.50;3.80;;;;;;;18.66;56.48;102723.00;5016665;28;20030;-65
2021/12/14 09:37:00;;;;;;;16.80;4.72;;;;;;;18.68;56.37;102715.81;5015594;28;20030;-65
2021/12/14 09:39:35;;;;;;;10.75;3.45;;;;;;;18.65;56.30;102713.34;5016402;28;20481;-66
2021/12/14 09:42:08;;;;;;;11.57;2.97;;;;;;;18.65;56.24;102709.88;5015949;28;20034;-65
2021/12/14 09:44:36;;;;;;;9.15;2.70;;;;;;;18.67;56.07;102714.13;5015471;28;20478;-66
2021/12/14 09:47:12;;;;;;;9.02;3.08;;;;;;;18.66;56.37;102711.59;5015852;28;20536;-66
2021/12/14 09:49:50;;;;;;;13.52;3.55;;;;;;;18.68;56.12;102714.97;5016189;28;20101;-66
2021/12/14 09:52:37;;;;;;;11.90;3.95;;;;;;;18.68;56.42;102707.06;5016132;28;20052;-65
2021/12/14 09:55:08;;;;;;;12.57;3.58;;;;;;;18.66;56.52;102695.75;5015853;28;20117;-65
2021/12/14 09:57:44;;;;;;;20.55;3.97;;;;;;;18.70;56.29;102696.41;5016138;28;20076;-66
2021/12/14 10:00:48;;;;;;;13.75;4.38;;;;;;;18.66;56.28;102690.47;5016075;28;20060;-66
2021/12/14 10:03:25;;;;;;;12.37;3.70;;;;;;;18.60;56.46;102681.06;5039611;28;20474;-66
2021/12/14 10:05:54;;;;;;;11.77;3.33;;;;;;;18.68;56.19;102696.50;5014936;28;20029;-67
2021/12/14 10:08:25;;;;;;;12.55;3.28;;;;;;;18.69;56.28;102698.19;5016517;28;20046;-68
2021/12/14 10:11:04;;;;;;;10.13;3.53;;;;;;;18.77;56.31;102688.06;5015046;28;20097;-66
2021/12/14 10:13:31;;;;;;;11.32;3.67;;;;;;;18.87;56.31;102698.13;5015898;28;20420;-67
2021/12/14 10:15:59;;;;;;;10.13;3.65;;;;;;;18.94;55.85;102697.72;5014655;28;20084;-67
2021/12/14 10:18:32;;;;;;;12.27;3.65;;;;;;;18.99;55.92;102697.47;5014459;28;20184;-67
2021/12/14 10:21:15;;;;;;;11.57;3.50;;;;;;;19.06;55.51;102698.84;5014708;28;20025;-66
2021/12/14 10:23:42;;;;;;;14.60;3.72;;;;;;;19.06;55.46;102709.41;5013926;28;20414;-66
2021/12/14 10:26:09;;;;;;;13.45;4.20;;;;;;;19.02;55.31;102718.44;5014203;28;20050;-61
2021/12/14 10:28:40;;;;;;;12.35;3.53;;;;;;;19.05;55.60;102710.34;5018114;28;20034;-66
2021/12/14 10:31:13;;;;;;;11.90;4.22;;;;;;;19.13;53.41;102707.28;5015800;28;20022;-68
2021/12/14 10:33:43;;;;;;;15.33;4.63;;;;;;;19.16;54.39;102707.94;5014651;28;20121;-65
2021/12/14 10:36:23;;;;;;;11.35;4.18;;;;;;;19.19;55.20;102706.94;5014873;28;20259;-67
2021/12/14 10:39:07;;;;;;;11.57;4.50;;;;;;;19.27;54.78;102711.78;5014697;28;20515;-67
2021/12/14 10:44:16;;;;;;;11.93;3.85;;;;;;;19.37;54.48;102713.78;5014867;28;20056;-66
2021/12/14 10:46:46;;;;;;;15.20;4.57;;;;;;;19.40;54.42;102718.06;5014028;28;20018;-66
2021/12/14 10:49:15;;;;;;;14.13;3.90;;;;;;;19.42;54.44;102713.53;5015054;28;20036;-65
2021/12/14 10:51:43;;;;;;;16.25;5.75;;;;;;;19.43;54.38;102714.41;5014471;28;20033;-68
2021/12/14 10:54:13;;;;;;;16.23;4.47;;;;;;;19.45;54.47;102716.00;5013862;28;20088;-67
2021/12/14 10:56:51;;;;;;;13.80;3.97;;;;;;;19.45;54.46;102713.38;5014524;28;20484;-67
2021/12/14 10:59:19;;;;;;;13.93;4.63;;;;;;;19.42;53.95;102713.53;5014927;28;20049;-67
2021/12/14 11:01:57;;;;;;;11.32;3.97;;;;;;;19.38;54.15;102702.28;5013722;28;20402;-63
2021/12/14 11:04:40;;;;;;;13.07;4.25;;;;;;;19.42;54.17;102705.59;5014721;28;20038;-63
2021/12/14 11:07:11;;;;;;;11.18;4.47;;;;;;;19.43;54.54;102707.31;5013863;28;20294;-64
2021/12/14 11:09:40;;;;;;;12.57;3.85;;;;;;;19.45;54.57;102707.22;5014528;28;20036;-61
2021/12/14 11:12:07;;;;;;;13.10;4.45;;;;;;;19.47;54.58;102697.41;5014549;28;20037;-62
2021/12/14 11:14:37;;;;;;;12.57;4.10;;;;;;;19.47;54.82;102700.94;5013564;28;20060;-68
2021/12/14 11:19:54;;;;;;;12.68;4.25;;;;;;;19.44;55.11;102692.28;5014172;28;20524;-62
2021/12/14 11:22:24;;;;;;;18.58;4.90;;;;;;;19.44;54.87;102681.72;5013326;28;20486;-63
2021/12/14 11:24:58;;;;;;;15.02;4.68;;;;;;;19.46;54.88;102685.16;5014126;28;20032;-66
2021/12/14 11:27:30;;;;;;;15.35;4.78;;;;;;;19.44;54.61;102682.59;5014301;28;20113;-65
2021/12/14 11:30:20;;;;;;;14.43;4.60;;;;;;;19.38;54.99;102678.50;5012966;28;20235;-68
2021/12/14 11:33:13;;;;;;;16.17;4.90;;;;;;;19.31;55.03;102678.94;5013974;28;20390;-68
2021/12/14 11:35:50;;;;;;;14.90;5.00;;;;;;;19.23;55.10;102667.94;5013161;28;20044;-68
2021/12/14 11:38:36;;;;;;;12.90;4.90;;;;;;;19.19;55.12;102673.41;5013861;28;20045;-68
2021/12/14 11:41:19;;;;;;;13.55;4.57;;;;;;;19.18;55.35;102670.84;5014430;28;20083;-65
2021/12/14 11:43:55;;;;;;;11.88;4.53;;;;;;;19.25;55.09;102674.00;5015840;28;20104;-62
2021/12/14 11:46:21;;;;;;;12.98;4.60;;;;;;;19.32;54.90;102668.28;5015221;28;20057;-65
2021/12/14 11:48:47;;;;;;;12.48;4.63;;;;;;;19.36;54.73;102668.97;5013587;28;20466;-65
2021/12/14 11:51:12;;;;;;;15.75;5.78;;;;;;;19.32;54.75;102670.06;5012909;28;20048;-65
2021/12/14 11:53:54;;;;;;;16.42;4.70;;;;;;;19.27;54.94;102672.13;5013560;28;20022;-67
2021/12/14 11:56:26;;;;;;;12.15;4.40;;;;;;;19.21;55.41;102670.69;5012743;28;20029;-64
2021/12/14 11:59:00;;;;;;;12.52;5.00;;;;;;;19.16;55.23;102670.94;5013133;28;20030;-64
2021/12/14 12:01:31;;;;;;;16.08;4.90;;;;;;;19.13;55.17;102672.91;5013277;28;20038;-64
2021/12/14 12:04:16;;;;;;;16.65;5.85;;;;;;;19.10;55.47;102675.72;5012214;28;20478;-67
2021/12/14 12:09:30;;;;;;;13.57;5.25;;;;;;;19.03;55.61;102677.88;5013381;28;20034;-65
2021/12/14 12:12:10;;;;;;;14.18;5.25;;;;;;;19.01;55.61;102683.25;5012252;28;20049;-65
2021/12/14 12:14:59;;;;;;;12.80;5.00;;;;;;;18.97;55.57;102672.94;5013494;28;20072;-65
2021/12/14 12:17:43;;;;;;;13.25;5.53;;;;;;;18.95;55.98;102677.47;5012287;28;20054;-64
2021/12/14 12:20:33;;;;;;;16.20;5.50;;;;;;;18.92;55.54;102673.19;5013198;28;20398;-66